Terminal Aerodrome Forecast
Issued by NWS

Home | Current Version | Previous Version | Text Only | Print | Product List | Glossary On
Versions: 1 2 3 4 5 6 7 8 9 10 11 12 13
000
FTUS42 TJSJ 280500
TAFJMZ
TAF
TJMZ 280539Z 2806/2906 VRB05KT P6SM FEW025
     FM281630 26010KT P6SM VCTS SCT025CB BKN040
     FM282330 VRB05KT P6SM FEW025
      AMD NOT SKED TIL 281600=

USA.gov is the U.S. government's official web portal to all federal, state and local government web resources and services.